Time;durP1;ratioP1;P1;durP2;ratioP2;P2;SDS_P1;SDS_P2;PMS_P1;PMS_P2;Temp;Humidity;BMP_temperature;BMP_pressure;BME280_temperature;BME280_humidity;BME280_pressure;Samples;Min_cycle;Max_cycle;Signal;HPM_P1;HPM_P2
2024/04/10 00:01:29;;;;;;;4.68;1.00;;;;;;;11.24;100.00;101454.44;6644857;26;20004;-87
2024/04/10 00:04:32;;;;;;;1.60;1.08;;;;;;;11.16;100.00;101453.00;6645386;26;19997;-87
2024/04/10 00:07:33;;;;;;;6.30;1.13;;;;;;;11.10;100.00;101457.69;6644385;26;20074;-87
2024/04/10 00:10:36;;;;;;;7.43;1.38;;;;;;;11.08;100.00;101464.75;6643446;26;20063;-87
2024/04/10 00:13:36;;;;;;;7.68;2.03;;;;;;;11.11;100.00;101475.16;6644228;26;19997;-88
2024/04/10 00:16:42;;;;;;;4.13;1.48;;;;;;;11.08;100.00;101473.53;6644424;26;20067;-85
2024/04/10 00:19:49;;;;;;;8.02;1.55;;;;;;;10.96;100.00;101476.69;6644061;26;19997;-86
2024/04/10 00:22:52;;;;;;;3.88;1.38;;;;;;;10.92;100.00;101473.34;6643981;26;20004;-88
2024/04/10 00:25:53;;;;;;;5.05;1.00;;;;;;;10.85;100.00;101482.41;6644156;26;19993;-87
2024/04/10 00:28:56;;;;;;;3.42;1.08;;;;;;;10.93;100.00;101488.19;6644253;26;20005;-86
2024/04/10 00:32:00;;;;;;;3.08;1.13;;;;;;;10.85;100.00;101478.91;6643787;26;20333;-86
2024/04/10 00:35:03;;;;;;;7.60;1.48;;;;;;;10.87;100.00;101480.56;6643708;26;20020;-86
2024/04/10 00:38:03;;;;;;;4.80;0.90;;;;;;;10.91;100.00;101491.81;6652512;26;20056;-87
2024/04/10 00:41:08;;;;;;;2.60;1.48;;;;;;;10.79;100.00;101489.69;6657669;26;19993;-89
2024/04/10 00:44:09;;;;;;;7.00;1.50;;;;;;;10.79;100.00;101492.34;6659644;26;20000;-87
2024/04/10 00:47:15;;;;;;;2.83;1.17;;;;;;;10.75;100.00;101496.00;6657856;26;20009;-87
2024/04/10 00:50:16;;;;;;;3.70;1.40;;;;;;;10.79;100.00;101501.06;6659871;26;20001;-87
2024/04/10 00:53:19;;;;;;;5.97;1.10;;;;;;;10.79;100.00;101498.44;6648529;26;20432;-87
2024/04/10 00:56:20;;;;;;;7.35;1.42;;;;;;;10.78;100.00;101509.88;6643858;26;20054;-88
2024/04/10 00:59:23;;;;;;;4.35;1.23;;;;;;;10.72;100.00;101504.91;6643410;26;20029;-86
2024/04/10 01:02:28;;;;;;;10.15;1.48;;;;;;;10.80;100.00;101515.06;6642886;26;20003;-86
2024/04/10 01:05:31;;;;;;;8.93;1.60;;;;;;;10.69;100.00;101523.41;6644285;26;19993;-86
2024/04/10 01:08:33;;;;;;;4.25;1.27;;;;;;;10.75;100.00;101531.03;6643833;26;20030;-87
2024/04/10 01:11:36;;;;;;;5.10;1.65;;;;;;;10.80;100.00;101542.22;6643159;26;20008;-88
2024/04/10 01:14:37;;;;;;;8.40;2.20;;;;;;;10.86;100.00;101546.38;6643646;26;19997;-87
2024/04/10 01:17:43;;;;;;;3.58;1.20;;;;;;;10.86;100.00;101552.50;6643486;26;20302;-88
2024/04/10 01:20:43;;;;;;;5.10;1.48;;;;;;;10.88;100.00;101560.31;6643690;26;19997;-83
2024/04/10 01:23:49;;;;;;;7.05;1.35;;;;;;;10.86;100.00;101565.66;6646912;26;20254;-87
2024/04/10 01:26:49;;;;;;;5.68;1.15;;;;;;;10.88;100.00;101562.94;6646467;26;20043;-86
2024/04/10 01:29:52;;;;;;;4.78;0.75;;;;;;;10.84;100.00;101548.22;6647043;26;20293;-88
2024/04/10 01:32:53;;;;;;;11.13;1.42;;;;;;;10.72;100.00;101548.69;6646923;26;19993;-87
2024/04/10 01:35:56;;;;;;;10.05;1.20;;;;;;;10.69;100.00;101543.59;6646141;26;20059;-87
2024/04/10 01:38:59;;;;;;;10.63;1.50;;;;;;;10.70;100.00;101555.81;6647054;26;19993;-89
2024/04/10 01:42:02;;;;;;;7.75;1.50;;;;;;;10.73;100.00;101556.53;6647552;26;19993;-89
2024/04/10 01:45:03;;;;;;;5.25;1.50;;;;;;;10.75;100.00;101562.59;6647390;26;19988;-87
2024/04/10 01:48:08;;;;;;;5.07;1.00;;;;;;;10.69;100.00;101570.72;6648705;26;20012;-88
2024/04/10 01:51:08;;;;;;;11.30;1.90;;;;;;;10.68;100.00;101576.91;6649109;26;19997;-89
2024/04/10 01:54:14;;;;;;;7.78;1.23;;;;;;;10.72;100.00;101585.50;6645861;26;20008;-88
2024/04/10 01:57:14;;;;;;;11.88;1.75;;;;;;;10.77;100.00;101575.69;6646315;26;20008;-89
2024/04/10 02:00:18;;;;;;;7.53;2.42;;;;;;;10.62;100.00;101577.13;6646174;26;20316;-85
2024/04/10 02:03:21;;;;;;;6.38;1.58;;;;;;;10.61;100.00;101592.06;6645676;26;20001;-84
2024/04/10 02:06:23;;;;;;;8.35;1.60;;;;;;;10.76;100.00;101592.34;6645908;26;19996;-88
2024/04/10 02:09:29;;;;;;;3.53;1.58;;;;;;;10.69;100.00;101583.03;6646227;26;20296;-88
2024/04/10 02:12:30;;;;;;;2.53;1.55;;;;;;;10.69;100.00;101590.91;6645623;26;20058;-89
2024/04/10 02:15:33;;;;;;;8.63;1.67;;;;;;;10.73;100.00;101589.88;6646529;26;19993;-88
2024/04/10 02:18:36;;;;;;;11.00;2.03;;;;;;;10.76;100.00;101614.25;6647428;26;19993;-88
2024/04/10 02:21:39;;;;;;;9.90;1.50;;;;;;;10.77;100.00;101613.34;6647377;26;20067;-85
2024/04/10 02:24:43;;;;;;;10.10;2.35;;;;;;;10.70;100.00;101621.53;6646253;26;19996;-89
2024/04/10 02:27:46;;;;;;;5.50;1.98;;;;;;;10.68;100.00;101618.13;6674816;26;20012;-88
2024/04/10 02:30:47;;;;;;;5.80;1.52;;;;;;;10.74;100.00;101626.59;6689950;26;20007;-84
2024/04/10 02:33:50;;;;;;;9.13;2.00;;;;;;;10.74;100.00;101631.00;6687340;26;20004;-88
2024/04/10 02:36:55;;;;;;;8.43;1.80;;;;;;;10.75;100.00;101636.19;6690763;26;20000;-88
2024/04/10 02:40:03;;;;;;;4.90;1.35;;;;;;;10.75;100.00;101648.50;6690156;26;20391;-90
2024/04/10 02:43:07;;;;;;;4.80;2.00;;;;;;;10.75;100.00;101649.34;6688057;26;20031;-89
2024/04/10 02:46:07;;;;;;;5.68;1.67;;;;;;;10.77;100.00;101660.69;6688799;26;20426;-87
2024/04/10 02:49:10;;;;;;;9.60;2.03;;;;;;;10.80;100.00;101676.31;6689705;26;19996;-88
2024/04/10 02:52:11;;;;;;;10.23;2.10;;;;;;;10.69;100.00;101683.78;6665508;26;20250;-87
2024/04/10 02:55:17;;;;;;;5.70;1.48;;;;;;;10.78;100.00;101687.81;6667857;26;20074;-89
2024/04/10 02:58:18;;;;;;;9.02;2.20;;;;;;;10.78;100.00;101691.31;6673612;26;20001;-88
2024/04/10 03:01:21;;;;;;;7.55;2.17;;;;;;;10.65;100.00;101696.16;6662015;26;20372;-86
2024/04/10 03:04:21;;;;;;;5.90;1.90;;;;;;;10.70;100.00;101701.25;6669791;26;20000;-85
2024/04/10 03:07:24;;;;;;;9.73;2.33;;;;;;;10.62;100.00;101705.94;6666105;26;20033;-85
2024/04/10 03:10:28;;;;;;;7.80;2.13;;;;;;;10.71;100.00;101717.88;6666655;26;20022;-84
2024/04/10 03:13:39;;;;;;;9.05;2.08;;;;;;;10.64;100.00;101720.75;6667989;26;20318;-86
2024/04/10 03:16:43;;;;;;;4.70;1.63;;;;;;;10.72;100.00;101730.09;6677495;26;20031;-84
2024/04/10 03:19:46;;;;;;;7.55;1.98;;;;;;;10.61;100.00;101735.78;6652916;26;20040;-83
2024/04/10 03:22:46;;;;;;;8.70;2.13;;;;;;;10.59;100.00;101725.34;6679396;26;20001;-84
2024/04/10 03:26:03;;;;;;;4.60;2.20;;;;;;;10.64;100.00;101736.53;6682282;26;20016;-82
2024/04/10 03:29:06;;;;;;;7.00;1.98;;;;;;;10.56;100.00;101733.31;6687418;26;20073;-83
2024/04/10 03:32:06;;;;;;;8.55;2.00;;;;;;;10.69;100.00;101736.34;6644066;26;20070;-83
2024/04/10 03:35:09;;;;;;;4.70;1.63;;;;;;;10.57;100.00;101732.41;6643777;26;19989;-82
2024/04/10 03:38:10;;;;;;;6.93;1.88;;;;;;;10.55;100.00;101757.91;6643816;26;20000;-83
2024/04/10 03:41:15;;;;;;;8.93;1.85;;;;;;;10.44;100.00;101751.31;6650589;26;20077;-82
2024/04/10 03:44:19;;;;;;;8.98;2.08;;;;;;;10.43;100.00;101752.22;6674340;26;20135;-83
2024/04/10 03:47:22;;;;;;;8.38;1.90;;;;;;;10.45;100.00;101756.53;6659043;26;20001;-83
2024/04/10 03:50:25;;;;;;;6.60;1.48;;;;;;;10.54;100.00;101766.69;6644389;26;20062;-86
2024/04/10 03:53:28;;;;;;;2.85;1.52;;;;;;;10.50;100.00;101766.88;6686753;26;20004;-84
2024/04/10 03:56:31;;;;;;;6.45;2.10;;;;;;;10.36;100.00;101773.47;6686093;26;20330;-84
2024/04/10 03:59:34;;;;;;;14.18;1.85;;;;;;;10.32;100.00;101785.00;6659497;26;20074;-83
2024/04/10 04:02:34;;;;;;;5.35;1.75;;;;;;;10.31;100.00;101803.44;6643488;26;20007;-84
2024/04/10 04:05:37;;;;;;;9.55;1.73;;;;;;;10.31;100.00;101798.19;6644159;26;20001;-84
2024/04/10 04:08:37;;;;;;;4.65;1.50;;;;;;;10.36;100.00;101807.63;6680516;26;20050;-84
2024/04/10 04:11:43;;;;;;;6.13;1.88;;;;;;;10.29;100.00;101818.41;6686807;26;20004;-83
2024/04/10 04:14:47;;;;;;;11.10;2.50;;;;;;;10.26;100.00;101816.72;6657564;26;20065;-83
2024/04/10 04:17:47;;;;;;;7.35;1.90;;;;;;;10.27;100.00;101822.88;6643404;26;20115;-82
2024/04/10 04:20:50;;;;;;;7.78;1.60;;;;;;;10.26;100.00;101826.38;6643609;26;20000;-83
2024/04/10 04:23:52;;;;;;;4.05;1.27;;;;;;;10.20;100.00;101834.47;6643622;26;20009;-82
2024/04/10 04:26:58;;;;;;;3.90;1.55;;;;;;;10.22;100.00;101846.66;6675874;26;20004;-83
2024/04/10 04:30:02;;;;;;;11.68;1.67;;;;;;;10.24;100.00;101854.47;6686987;26;20344;-82
2024/04/10 04:33:03;;;;;;;4.47;1.20;;;;;;;10.22;100.00;101862.41;6686273;26;20318;-82
2024/04/10 04:36:07;;;;;;;5.38;1.48;;;;;;;10.26;100.00;101871.91;6686267;26;20371;-82
2024/04/10 04:39:13;;;;;;;9.35;1.60;;;;;;;10.29;100.00;101878.84;6686151;26;20057;-83
2024/04/10 04:42:16;;;;;;;5.32;1.40;;;;;;;10.26;100.00;101900.81;6686067;26;20003;-81
2024/04/10 04:45:19;;;;;;;7.68;1.52;;;;;;;10.19;100.00;101906.31;6686040;26;20003;-82
2024/04/10 04:48:20;;;;;;;8.25;1.55;;;;;;;10.19;100.00;101919.44;6686045;26;20057;-84
2024/04/10 04:51:23;;;;;;;3.88;1.40;;;;;;;10.30;100.00;101912.06;6686065;26;19996;-79
2024/04/10 04:54:26;;;;;;;6.80;1.70;;;;;;;10.41;100.00;101921.34;6686105;26;20002;-81
2024/04/10 04:57:29;;;;;;;4.75;1.52;;;;;;;10.40;100.00;101932.75;6684928;26;20003;-82
2024/04/10 05:00:32;;;;;;;3.90;1.15;;;;;;;10.45;100.00;101944.88;6686252;26;20000;-84
2024/04/10 05:06:54;;;;;;;4.03;1.40;;;;;;;10.58;100.00;101946.16;6688826;26;20004;-83
2024/04/10 05:09:58;;;;;;;4.80;1.30;;;;;;;10.63;100.00;101945.13;6685777;26;19992;-82
2024/04/10 05:13:03;;;;;;;3.80;1.17;;;;;;;10.62;100.00;101968.81;6685175;26;19996;-82
2024/04/10 05:16:04;;;;;;;2.80;1.05;;;;;;;10.50;100.00;101969.25;6685417;26;20028;-81
2024/04/10 05:19:07;;;;;;;3.95;1.05;;;;;;;10.46;100.00;101979.00;6685762;26;20060;-81
2024/04/10 05:22:10;;;;;;;2.00;0.90;;;;;;;10.34;100.00;101993.38;6685356;26;20020;-82
2024/04/10 05:25:11;;;;;;;4.78;1.10;;;;;;;10.43;100.00;101984.34;6685660;26;20024;-81
2024/04/10 05:28:17;;;;;;;4.47;1.25;;;;;;;10.38;100.00;101999.41;6679181;26;20074;-80
2024/04/10 05:31:17;;;;;;;4.63;1.50;;;;;;;10.36;100.00;102004.72;6668389;26;20016;-79
2024/04/10 05:34:20;;;;;;;11.05;1.73;;;;;;;10.37;100.00;102005.56;6644267;26;20032;-79
2024/04/10 05:37:24;;;;;;;3.55;1.40;;;;;;;10.35;100.00;102013.47;6684570;26;19996;-84
2024/04/10 05:40:25;;;;;;;10.05;1.33;;;;;;;10.39;100.00;102025.63;6683623;26;20006;-80
2024/04/10 05:43:30;;;;;;;8.68;1.67;;;;;;;10.39;100.00;102038.75;6684464;26;20253;-79
2024/04/10 05:46:31;;;;;;;5.72;1.45;;;;;;;10.35;100.00;102046.78;6684936;26;19996;-80
2024/04/10 05:49:34;;;;;;;6.07;1.90;;;;;;;10.42;100.00;102050.94;6685044;26;20061;-79
2024/04/10 05:52:35;;;;;;;6.57;1.88;;;;;;;10.44;100.00;102059.63;6684283;26;20015;-81
2024/04/10 05:55:38;;;;;;;6.10;2.00;;;;;;;10.44;100.00;102057.00;6684643;26;20040;-79
2024/04/10 05:58:41;;;;;;;3.25;1.63;;;;;;;10.53;100.00;102067.22;6684528;26;20437;-80
2024/04/10 06:01:44;;;;;;;7.90;1.65;;;;;;;10.51;100.00;102061.19;6684211;26;20007;-80
2024/04/10 06:04:47;;;;;;;8.27;1.73;;;;;;;10.56;100.00;102066.28;6684593;26;19996;-81
2024/04/10 06:07:52;;;;;;;8.98;1.67;;;;;;;10.54;100.00;102073.38;6679563;26;20009;-81
2024/04/10 06:10:52;;;;;;;6.22;1.92;;;;;;;10.47;100.00;102070.06;6666199;26;20447;-83
2024/04/10 06:13:59;;;;;;;3.58;1.85;;;;;;;10.57;100.00;102087.25;6674791;26;20009;-81
2024/04/10 06:16:59;;;;;;;4.70;1.85;;;;;;;10.56;100.00;102096.06;6651541;26;20258;-79
2024/04/10 06:20:05;;;;;;;5.03;1.67;;;;;;;10.61;100.00;102098.53;6645028;26;20005;-79
2024/04/10 06:23:05;;;;;;;6.57;1.70;;;;;;;10.60;100.00;102099.44;6646840;26;20084;-79
2024/04/10 06:26:08;;;;;;;5.25;1.75;;;;;;;10.68;100.00;102107.09;6673937;26;20271;-82
2024/04/10 06:29:14;;;;;;;11.20;1.90;;;;;;;10.62;100.00;102106.38;6683113;26;20000;-81
2024/04/10 06:32:18;;;;;;;10.20;1.60;;;;;;;10.71;100.00;102105.22;6686697;26;20004;-81
2024/04/10 06:35:21;;;;;;;4.28;1.70;;;;;;;10.73;100.00;102115.69;6688131;26;20087;-80
2024/04/10 06:38:21;;;;;;;7.68;2.25;;;;;;;10.75;100.00;102127.88;6645090;26;20004;-81
2024/04/10 06:41:24;;;;;;;6.28;1.60;;;;;;;10.79;100.00;102134.75;6644008;26;20005;-80
2024/04/10 06:44:30;;;;;;;4.93;1.50;;;;;;;10.84;100.00;102135.47;6676020;26;20634;-80
2024/04/10 06:47:31;;;;;;;9.10;1.80;;;;;;;10.98;100.00;102134.16;6685675;26;20001;-79
2024/04/10 06:50:34;;;;;;;7.05;1.65;;;;;;;10.93;100.00;102150.94;6680326;26;20388;-79
2024/04/10 06:53:37;;;;;;;7.40;2.17;;;;;;;11.13;100.00;102158.22;6668074;26;20005;-76
2024/04/10 06:56:40;;;;;;;7.40;2.15;;;;;;;11.30;100.00;102165.53;6669003;26;20379;-76
2024/04/10 06:59:48;;;;;;;5.43;1.63;;;;;;;11.27;100.00;102167.44;6680313;26;20379;-76
2024/04/10 07:02:51;;;;;;;4.78;1.95;;;;;;;11.23;100.00;102176.31;6676232;26;20016;-77
2024/04/10 07:06:00;;;;;;;6.22;1.90;;;;;;;11.20;100.00;102179.91;6672653;26;20057;-77
2024/04/10 07:09:03;;;;;;;5.20;1.98;;;;;;;11.30;100.00;102193.63;6678991;26;20384;-77
2024/04/10 07:12:07;;;;;;;4.70;1.95;;;;;;;11.37;100.00;102181.97;6651704;26;20001;-77
2024/04/10 07:15:10;;;;;;;3.35;1.60;;;;;;;11.31;100.00;102187.44;6678374;26;20445;-77
2024/04/10 07:18:13;;;;;;;10.45;1.70;;;;;;;11.31;100.00;102198.84;6643562;26;20040;-79
2024/04/10 07:21:17;;;;;;;11.85;2.08;;;;;;;11.42;100.00;102204.59;6669200;26;20034;-78
2024/04/10 07:24:20;;;;;;;9.48;1.90;;;;;;;11.48;100.00;102206.16;6687355;26;19996;-75
2024/04/10 07:27:21;;;;;;;5.53;1.83;;;;;;;11.54;100.00;102208.59;6678271;26;20004;-77
2024/04/10 07:30:26;;;;;;;6.63;1.88;;;;;;;11.48;100.00;102218.47;6686082;26;20008;-77
2024/04/10 07:33:27;;;;;;;10.27;2.08;;;;;;;11.60;100.00;102221.56;6655430;26;20491;-76
2024/04/10 07:36:30;;;;;;;5.20;1.40;;;;;;;11.59;100.00;102234.78;6657540;26;20005;-77
2024/04/10 07:39:31;;;;;;;5.10;1.50;;;;;;;11.45;100.00;102234.38;6672423;26;20113;-77
2024/04/10 07:42:34;;;;;;;8.27;1.33;;;;;;;11.51;100.00;102244.69;6686723;26;20380;-77
2024/04/10 07:45:37;;;;;;;6.32;1.67;;;;;;;11.52;100.00;102249.06;6686601;26;20004;-78
2024/04/10 07:48:42;;;;;;;4.65;1.52;;;;;;;11.52;100.00;102247.28;6686935;26;20433;-78
2024/04/10 07:51:42;;;;;;;8.35;1.67;;;;;;;11.74;100.00;102263.22;6686562;26;20007;-78
2024/04/10 07:54:45;;;;;;;3.67;1.25;;;;;;;11.87;100.00;102263.69;6686769;26;20325;-78
2024/04/10 07:57:46;;;;;;;4.97;1.40;;;;;;;11.89;100.00;102265.34;6686442;26;20060;-78
2024/04/10 08:00:56;;;;;;;10.23;1.30;;;;;;;11.82;100.00;102265.59;6686522;26;20368;-78
2024/04/10 08:03:58;;;;;;;8.63;1.73;;;;;;;11.81;100.00;102272.66;6687190;26;20007;-77
2024/04/10 08:07:01;;;;;;;5.53;1.83;;;;;;;11.96;100.00;102279.19;6686573;26;20001;-79
2024/04/10 08:10:03;;;;;;;6.25;1.10;;;;;;;11.79;100.00;102276.22;6686634;26;20065;-78
2024/04/10 08:13:06;;;;;;;4.22;1.17;;;;;;;11.83;100.00;102281.38;6686284;26;19992;-78
2024/04/10 08:16:11;;;;;;;9.63;1.60;;;;;;;11.84;100.00;102282.22;6686771;26;19996;-77
2024/04/10 08:19:14;;;;;;;3.50;1.05;;;;;;;11.75;100.00;102290.41;6686812;26;20004;-79
2024/04/10 08:22:14;;;;;;;3.85;1.35;;;;;;;11.90;100.00;102295.22;6686063;26;20050;-79
2024/04/10 08:25:17;;;;;;;7.40;1.10;;;;;;;12.04;100.00;102294.75;6686442;26;20376;-78
2024/04/10 08:28:20;;;;;;;10.10;1.20;;;;;;;12.16;98.25;102302.19;6686310;26;20007;-77
2024/04/10 08:31:27;;;;;;;5.78;1.42;;;;;;;12.08;99.17;102305.13;6684842;26;19996;-76
2024/04/10 08:34:28;;;;;;;9.02;1.08;;;;;;;12.03;100.00;102309.66;6686566;26;20000;-76
2024/04/10 08:37:31;;;;;;;9.35;1.63;;;;;;;12.05;100.00;102321.03;6686165;26;20441;-78
2024/04/10 08:40:35;;;;;;;3.30;1.20;;;;;;;11.96;100.00;102317.84;6686051;26;19988;-78
2024/04/10 08:43:42;;;;;;;9.93;1.48;;;;;;;11.92;100.00;102330.25;6686221;26;20043;-78
2024/04/10 08:46:49;;;;;;;5.55;0.93;;;;;;;11.99;99.92;102323.88;6685837;26;20322;-77
2024/04/10 08:49:52;;;;;;;8.68;1.25;;;;;;;12.13;98.27;102334.81;6686361;26;20044;-76
2024/04/10 08:54:30;;;;;;;5.70;1.13;;;;;;;12.31;98.24;102333.31;6912530;25;20338;-76
2024/04/10 08:57:31;;;;;;;2.80;1.20;;;;;;;12.34;95.07;102341.09;6889163;25;20124;-76
2024/04/10 09:00:34;;;;;;;4.57;0.90;;;;;;;12.56;87.02;102335.91;6889884;25;20005;-79
2024/04/10 09:03:35;;;;;;;2.50;1.20;;;;;;;12.52;90.65;102336.94;6889570;25;20301;-77
2024/04/10 09:06:38;;;;;;;5.45;1.38;;;;;;;12.80;90.52;102338.56;6889346;25;19989;-76
2024/04/10 09:09:41;;;;;;;4.72;1.10;;;;;;;12.82;87.32;102342.03;6889276;25;19993;-77
2024/04/10 09:12:44;;;;;;;7.07;1.10;;;;;;;12.94;87.75;102345.06;6888504;25;20353;-76
2024/04/10 09:15:44;;;;;;;4.97;0.88;;;;;;;13.08;83.88;102348.94;6889071;25;20001;-78
2024/04/10 09:18:47;;;;;;;5.65;1.17;;;;;;;13.03;83.95;102357.03;6889118;25;20345;-76
2024/04/10 09:21:55;;;;;;;4.50;1.50;;;;;;;13.09;85.33;102356.81;6888545;25;19997;-76
2024/04/10 09:25:11;;;;;;;3.75;1.05;;;;;;;12.93;84.89;102369.72;6888996;25;19993;-76
2024/04/10 09:28:14;;;;;;;2.92;1.00;;;;;;;12.87;86.26;102367.31;6889560;25;19996;-77
2024/04/10 09:31:17;;;;;;;3.67;0.88;;;;;;;12.70;82.63;102381.13;6888588;25;20451;-77
2024/04/10 09:34:22;;;;;;;5.40;1.02;;;;;;;12.79;82.52;102372.00;6888883;25;20057;-77
2024/04/10 09:37:22;;;;;;;3.75;0.90;;;;;;;12.90;82.96;102374.28;6888737;25;20041;-75
2024/04/10 09:40:29;;;;;;;3.47;1.00;;;;;;;13.01;81.05;102382.63;6888557;25;20389;-79
2024/04/10 09:43:33;;;;;;;8.88;1.58;;;;;;;13.03;82.64;102391.34;6888620;25;19993;-76
2024/04/10 09:46:35;;;;;;;4.55;0.80;;;;;;;12.84;83.19;102398.22;6888483;25;20000;-76
2024/04/10 09:49:43;;;;;;;4.28;0.90;;;;;;;12.85;80.20;102400.84;6851262;25;20002;-76
2024/04/10 09:52:49;;;;;;;5.00;1.07;;;;;;;13.15;78.05;102395.31;6842095;25;20253;-77
2024/04/10 09:55:52;;;;;;;3.42;1.10;;;;;;;13.27;80.30;102389.63;6865996;25;20065;-77
2024/04/10 09:58:57;;;;;;;5.68;1.20;;;;;;;13.21;79.82;102405.63;6888805;25;20005;-77
2024/04/10 10:02:06;;;;;;;4.18;1.13;;;;;;;13.18;79.59;102401.34;6852712;25;19998;-77
2024/04/10 10:05:21;;;;;;;1.73;0.90;;;;;;;13.21;76.89;102406.50;6825288;25;19994;-76
2024/04/10 10:08:22;;;;;;;3.65;1.00;;;;;;;13.29;76.27;102400.97;6822866;26;19990;-76
2024/04/10 10:11:28;;;;;;;2.67;0.93;;;;;;;13.41;74.19;102394.38;6837604;26;20009;-77
2024/04/10 10:14:30;;;;;;;2.17;0.80;;;;;;;13.48;74.81;102394.97;6867811;25;20336;-76
2024/04/10 10:17:33;;;;;;;4.00;0.95;;;;;;;13.36;71.65;102410.38;6868245;25;20393;-76
2024/04/10 10:20:33;;;;;;;3.22;0.75;;;;;;;13.35;74.42;102406.03;6867719;25;20573;-76
2024/04/10 10:23:38;;;;;;;5.75;0.80;;;;;;;13.39;76.22;102412.03;6867963;25;19993;-75
2024/04/10 10:26:41;;;;;;;3.28;1.08;;;;;;;13.39;74.92;102410.25;6867883;25;20471;-77
2024/04/10 10:29:44;;;;;;;5.07;1.00;;;;;;;13.57;76.29;102405.19;6867981;25;20380;-75
2024/04/10 10:32:44;;;;;;;5.07;0.98;;;;;;;13.67;70.61;102422.38;6867670;25;20058;-75
2024/04/10 10:35:47;;;;;;;5.03;1.13;;;;;;;13.53;68.47;102414.13;6867658;25;19994;-76
2024/04/10 10:38:50;;;;;;;6.18;0.90;;;;;;;13.43;66.62;102430.34;6867790;25;20049;-75
2024/04/10 10:42:04;;;;;;;6.50;1.10;;;;;;;13.66;65.87;102412.75;6867282;25;20000;-76
2024/04/10 10:45:05;;;;;;;1.95;0.82;;;;;;;13.68;64.69;102421.47;6868187;25;19997;-76
2024/04/10 10:48:16;;;;;;;6.70;1.55;;;;;;;13.70;66.94;102416.97;6867575;25;20037;-76
2024/04/10 10:51:18;;;;;;;3.47;0.95;;;;;;;13.82;65.61;102421.78;6867243;25;19998;-76
2024/04/10 10:54:21;;;;;;;2.95;0.70;;;;;;;13.87;69.82;102419.81;6867384;25;20425;-76
2024/04/10 10:57:24;;;;;;;3.55;0.82;;;;;;;13.87;67.55;102427.75;6839526;25;20067;-77
2024/04/10 11:00:33;;;;;;;2.33;0.90;;;;;;;14.06;69.77;102433.16;6838876;25;20062;-77
2024/04/10 11:03:33;;;;;;;3.88;0.93;;;;;;;13.99;67.05;102444.03;6841138;25;20013;-77
2024/04/10 11:06:36;;;;;;;1.92;0.80;;;;;;;14.00;68.69;102430.75;6853499;25;19994;-77
2024/04/10 11:09:37;;;;;;;9.07;1.10;;;;;;;14.10;66.74;102432.09;6844953;26;20002;-77
2024/04/10 11:12:42;;;;;;;2.38;0.80;;;;;;;14.00;66.26;102438.69;6845433;26;20012;-77
2024/04/10 11:15:45;;;;;;;3.05;0.90;;;;;;;14.26;65.94;102450.84;6849003;26;20010;-76
2024/04/10 11:18:48;;;;;;;2.15;0.57;;;;;;;14.28;65.01;102438.41;6844332;25;19998;-78
2024/04/10 11:21:49;;;;;;;6.10;1.00;;;;;;;14.42;65.45;102443.97;6853757;25;20385;-77
2024/04/10 11:24:53;;;;;;;4.85;0.90;;;;;;;14.35;66.37;102442.53;6860450;25;20070;-78
2024/04/10 11:27:57;;;;;;;3.95;0.90;;;;;;;14.30;69.13;102431.25;6845277;25;19993;-77
2024/04/10 11:31:00;;;;;;;3.92;1.70;;;;;;;14.26;68.11;102436.75;6861372;26;20009;-76
2024/04/10 11:34:01;;;;;;;3.95;0.75;;;;;;;14.09;69.86;102438.31;6860062;25;20449;-76
2024/04/10 11:37:04;;;;;;;3.28;1.10;;;;;;;14.04;65.80;102428.88;6866432;25;20067;-77
2024/04/10 11:40:11;;;;;;;4.65;1.20;;;;;;;13.90;67.31;102438.22;6850439;25;20001;-76
2024/04/10 11:43:17;;;;;;;2.13;1.00;;;;;;;13.93;66.55;102439.84;6848989;25;20016;-77
2024/04/10 11:46:21;;;;;;;2.83;1.02;;;;;;;14.02;69.18;102455.34;6847117;25;20011;-78
2024/04/10 11:49:21;;;;;;;3.72;1.20;;;;;;;14.08;69.76;102443.66;6851308;25;19998;-77
2024/04/10 11:52:24;;;;;;;5.20;1.20;;;;;;;14.53;67.13;102445.34;6864996;25;19997;-77
2024/04/10 11:55:27;;;;;;;4.57;0.88;;;;;;;14.62;67.19;102444.94;6866354;25;20057;-78
2024/04/10 11:58:33;;;;;;;5.50;1.17;;;;;;;14.50;67.41;102446.34;6866350;25;19993;-77
2024/04/10 12:01:33;;;;;;;5.35;1.13;;;;;;;14.44;66.71;102450.06;6865719;25;20005;-77
2024/04/10 12:04:36;;;;;;;6.50;1.35;;;;;;;14.43;67.56;102439.53;6864875;25;20389;-77
2024/04/10 12:07:38;;;;;;;2.92;1.25;;;;;;;14.45;67.58;102449.16;6833821;25;20258;-76
2024/04/10 12:10:41;;;;;;;2.72;1.00;;;;;;;14.51;66.71;102452.50;6820387;26;20388;-76
2024/04/10 12:13:45;;;;;;;5.63;1.20;;;;;;;14.82;68.29;102467.91;6835492;26;20269;-76
2024/04/10 12:16:48;;;;;;;3.67;1.00;;;;;;;14.73;67.43;102466.53;6850160;26;20012;-75
2024/04/10 12:19:48;;;;;;;6.47;1.40;;;;;;;14.80;68.08;102456.50;6865857;25;20001;-75
2024/04/10 12:22:51;;;;;;;2.28;1.10;;;;;;;14.87;66.96;102450.91;6865673;25;19993;-78
2024/04/10 12:25:52;;;;;;;6.65;1.10;;;;;;;14.82;68.10;102462.63;6865560;25;19994;-77
2024/04/10 12:28:57;;;;;;;7.32;1.55;;;;;;;14.58;62.61;102456.56;6860644;25;20010;-77
2024/04/10 12:31:59;;;;;;;5.07;0.93;;;;;;;14.71;62.07;102457.78;6840652;25;20061;-77
2024/04/10 12:38:19;;;;;;;4.25;1.00;;;;;;;15.29;63.86;102470.22;6836059;26;20319;-77
2024/04/10 12:41:23;;;;;;;2.63;1.08;;;;;;;15.34;63.62;102477.03;6849947;26;20005;-78
2024/04/10 12:44:30;;;;;;;3.83;1.00;;;;;;;15.07;65.81;102480.91;6863180;26;20079;-77
2024/04/10 12:47:33;;;;;;;7.07;1.60;;;;;;;15.06;63.96;102480.06;6819671;25;20045;-78
2024/04/10 12:50:33;;;;;;;8.18;1.60;;;;;;;15.31;65.15;102479.84;6834564;26;20002;-78
2024/04/10 12:53:36;;;;;;;6.55;1.63;;;;;;;15.39;63.30;102477.66;6853945;26;20069;-78
2024/04/10 12:56:37;;;;;;;5.63;1.50;;;;;;;15.42;67.54;102477.53;6850871;26;19997;-78
2024/04/10 12:59:46;;;;;;;3.33;1.35;;;;;;;15.23;65.31;102484.59;6860470;25;19998;-78
2024/04/10 13:02:49;;;;;;;7.53;1.40;;;;;;;15.09;65.65;102487.03;6849447;26;19998;-78
2024/04/10 13:05:57;;;;;;;3.95;1.30;;;;;;;15.06;65.57;102490.66;6841897;26;20108;-77
2024/04/10 13:08:58;;;;;;;4.53;1.42;;;;;;;14.98;66.63;102498.06;6840835;26;20379;-77
2024/04/10 13:12:01;;;;;;;7.32;1.77;;;;;;;15.15;63.86;102499.97;6854737;26;20038;-77
2024/04/10 13:15:08;;;;;;;3.10;0.88;;;;;;;15.14;64.49;102506.22;6860451;26;20002;-79
2024/04/10 13:18:08;;;;;;;5.90;1.50;;;;;;;15.18;66.56;102508.66;6854002;25;20013;-79
2024/04/10 13:21:12;;;;;;;5.75;1.30;;;;;;;15.20;63.87;102509.44;6841497;26;19998;-78
2024/04/10 13:24:15;;;;;;;3.97;1.02;;;;;;;15.20;60.68;102511.22;6864339;25;19997;-77
2024/04/10 13:27:15;;;;;;;3.55;1.33;;;;;;;15.23;62.92;102516.41;6848592;25;20069;-78
2024/04/10 13:30:23;;;;;;;1.77;0.90;;;;;;;15.21;65.15;102515.59;6864281;25;19986;-78
2024/04/10 13:33:23;;;;;;;8.02;1.08;;;;;;;15.27;63.60;102515.31;6850718;25;20704;-78
2024/04/10 13:36:27;;;;;;;4.15;1.17;;;;;;;15.30;61.66;102516.97;6861942;26;20013;-78
2024/04/10 13:39:28;;;;;;;6.00;1.02;;;;;;;15.26;64.02;102523.31;6863230;26;20069;-78
2024/04/10 13:42:31;;;;;;;2.97;1.05;;;;;;;15.27;64.14;102520.63;6837553;25;19999;-78
2024/04/10 13:45:34;;;;;;;5.38;1.10;;;;;;;15.04;64.78;102523.44;6855861;25;19998;-78
2024/04/10 13:48:38;;;;;;;2.35;1.02;;;;;;;14.93;64.79;102526.53;6838196;26;19994;-77
2024/04/10 13:51:41;;;;;;;3.00;1.05;;;;;;;15.00;62.67;102525.34;6837878;26;20001;-78
2024/04/10 13:54:44;;;;;;;1.35;0.82;;;;;;;14.96;62.64;102532.56;6849054;26;20013;-78
2024/04/10 13:57:47;;;;;;;4.20;1.23;;;;;;;14.99;63.59;102526.28;6868742;25;20286;-78
2024/04/10 14:00:50;;;;;;;2.30;0.98;;;;;;;14.92;64.53;102530.09;6868275;25;20054;-78
2024/04/10 14:03:55;;;;;;;1.27;0.98;;;;;;;15.01;65.07;102527.06;6864775;25;20001;-78
2024/04/10 14:06:58;;;;;;;3.45;0.90;;;;;;;15.03;65.32;102529.63;6852272;25;20373;-78
2024/04/10 14:09:58;;;;;;;3.65;1.02;;;;;;;15.27;65.05;102528.56;6854307;25;20376;-78
2024/04/10 14:13:04;;;;;;;8.55;1.52;;;;;;;16.04;64.66;102546.28;6851143;25;20005;-77